createdAt,value
2023-02-03T00:00:30.513Z,43.30
2023-02-03T00:02:32.404Z,43.30
2023-02-03T00:04:36.554Z,43.20
2023-02-03T00:06:38.550Z,43.20
2023-02-03T00:08:43.367Z,43.30
2023-02-03T00:10:48.720Z,43.30
2023-02-03T00:12:55.061Z,43.20
2023-02-03T00:14:57.267Z,43.30
2023-02-03T00:16:59.426Z,43.10
2023-02-03T00:19:04.051Z,43.10
2023-02-03T00:21:06.845Z,43.20
2023-02-03T00:23:12.359Z,43.20
2023-02-03T00:25:16.596Z,43.10
2023-02-03T00:27:18.386Z,43.30
2023-02-03T00:29:24.786Z,43.20
2023-02-03T00:31:26.626Z,43.20
2023-02-03T00:33:29.560Z,43.40
2023-02-03T00:35:31.355Z,43.40
2023-02-03T00:37:33.362Z,43.50
2023-02-03T00:39:39.422Z,43.30
2023-02-03T00:41:43.298Z,43.30
2023-02-03T00:43:45.263Z,43.20
2023-02-03T00:45:47.611Z,43.30
2023-02-03T00:47:49.374Z,43.20
2023-02-03T00:49:51.335Z,43.10
2023-02-03T00:51:53.495Z,43.20
2023-02-03T00:53:55.935Z,43.10
2023-02-03T00:55:58.014Z,43.10
2023-02-03T00:57:59.699Z,43.10
2023-02-03T01:00:01.479Z,43.10
2023-02-03T01:02:03.923Z,42.90
2023-02-03T01:04:05.912Z,42.90
2023-02-03T01:06:19.584Z,42.80
2023-02-03T01:08:23.596Z,43.10
2023-02-03T01:10:28.281Z,43.00
2023-02-03T01:12:33.136Z,43.00
2023-02-03T01:14:35.277Z,43.10
2023-02-03T01:16:41.038Z,43.20
2023-02-03T01:18:43.881Z,43.10
2023-02-03T01:20:45.703Z,43.40
2023-02-03T01:22:48.401Z,43.60
2023-02-03T01:24:50.066Z,43.90
2023-02-03T01:26:54.378Z,44.00
2023-02-03T01:28:58.810Z,44.20
2023-02-03T01:31:22.181Z,44.50
2023-02-03T01:33:24.001Z,44.40
2023-02-03T01:35:26.256Z,44.20
2023-02-03T01:37:27.997Z,44.30
2023-02-03T01:39:29.754Z,44.20
2023-02-03T01:41:35.049Z,44.20
2023-02-03T01:43:39.803Z,44.20
2023-02-03T01:45:41.575Z,44.30
2023-02-03T01:47:51.072Z,44.20
2023-02-03T01:50:11.797Z,44.30
2023-02-03T01:52:13.531Z,44.30
2023-02-03T01:54:22.945Z,44.20
2023-02-03T01:56:29.025Z,44.30
2023-02-03T01:58:33.899Z,44.30
2023-02-03T02:00:37.951Z,44.30
2023-02-03T02:02:45.709Z,44.40
2023-02-03T02:04:54.180Z,44.30
2023-02-03T02:06:59.592Z,43.80
2023-02-03T02:09:03.913Z,44.20
2023-02-03T02:11:08.849Z,44.30
2023-02-03T02:13:12.404Z,44.30
2023-02-03T02:15:14.319Z,44.20
2023-02-03T02:17:30.033Z,44.10
2023-02-03T02:20:02.324Z,44.30
2023-02-03T02:22:21.951Z,44.10
2023-02-03T02:24:42.564Z,43.80
2023-02-03T02:27:00.462Z,43.70
2023-02-03T02:29:04.871Z,44.10
2023-02-03T02:31:19.599Z,43.90
2023-02-03T02:33:42.168Z,43.80
2023-02-03T02:35:59.091Z,43.80
2023-02-03T02:38:12.929Z,43.80
2023-02-03T02:40:24.036Z,43.50
2023-02-03T02:42:36.509Z,43.60
2023-02-03T02:44:43.954Z,43.60
2023-02-03T02:46:52.712Z,43.40
2023-02-03T02:49:20.087Z,43.50
2023-02-03T02:51:23.473Z,43.40
2023-02-03T02:53:29.851Z,43.20
2023-02-03T02:55:34.191Z,43.00
2023-02-03T02:57:41.623Z,42.90
2023-02-03T02:59:43.430Z,42.90
2023-02-03T03:01:45.163Z,42.90
2023-02-03T03:03:47.143Z,42.90
2023-02-03T03:06:06.363Z,42.70
2023-02-03T03:08:13.926Z,42.70
2023-02-03T03:10:24.184Z,42.40
2023-02-03T03:12:31.180Z,42.50
2023-02-03T03:14:35.748Z,42.30
2023-02-03T03:16:39.597Z,42.20
2023-02-03T03:18:46.909Z,42.20
2023-02-03T03:20:52.846Z,42.20
2023-02-03T03:23:01.183Z,41.90
2023-02-03T03:25:14.727Z,41.80
2023-02-03T03:27:33.962Z,42.00
2023-02-03T03:29:48.803Z,42.00
2023-02-03T03:31:51.088Z,41.80
2023-02-03T03:33:53.091Z,41.80
2023-02-03T03:36:25.781Z,42.00
2023-02-03T03:38:37.869Z,42.10
2023-02-03T03:40:54.500Z,42.00
2023-02-03T03:43:03.360Z,42.00
2023-02-03T03:45:38.154Z,41.90
2023-02-03T03:48:07.393Z,41.80
2023-02-03T03:50:14.621Z,42.10
2023-02-03T03:52:22.595Z,42.10
2023-02-03T03:54:26.014Z,42.20
2023-02-03T03:56:38.079Z,42.30
2023-02-03T03:58:44.982Z,42.40
2023-02-03T04:00:48.489Z,42.40
2023-02-03T04:02:54.187Z,42.40
2023-02-03T04:05:00.154Z,42.20
2023-02-03T04:07:02.026Z,42.30
2023-02-03T04:09:03.995Z,42.20
2023-02-03T04:11:06.610Z,42.20
2023-02-03T04:13:10.778Z,42.20
2023-02-03T04:15:17.209Z,42.00
2023-02-03T04:17:27.996Z,41.80
2023-02-03T04:19:29.802Z,41.70
2023-02-03T04:21:31.632Z,41.50
2023-02-03T04:23:33.852Z,41.40
2023-02-03T04:25:35.658Z,41.20
2023-02-03T04:27:40.093Z,41.10
2023-02-03T04:29:41.819Z,41.10
2023-02-03T04:31:46.840Z,40.90
2023-02-03T04:33:48.551Z,40.80
2023-02-03T04:35:50.395Z,40.70
2023-02-03T04:37:52.153Z,40.60
2023-02-03T04:39:55.392Z,40.50
2023-02-03T04:41:57.130Z,40.40
2023-02-03T04:44:01.731Z,40.30
2023-02-03T04:46:03.686Z,40.40
2023-02-03T04:48:05.726Z,40.40
2023-02-03T04:50:07.938Z,40.40
2023-02-03T04:52:10.137Z,40.60
2023-02-03T04:54:12.277Z,40.50
2023-02-03T04:56:16.664Z,40.90
2023-02-03T04:58:18.472Z,41.10
2023-02-03T05:00:20.632Z,41.00
2023-02-03T05:02:22.399Z,40.90
2023-02-03T05:04:26.719Z,41.00
2023-02-03T05:06:36.421Z,41.00
2023-02-03T05:08:38.239Z,41.10
2023-02-03T05:10:40.019Z,41.10
2023-02-03T05:12:41.830Z,41.30
2023-02-03T05:14:43.884Z,41.40
2023-02-03T05:16:48.149Z,41.50
2023-02-03T05:18:50.034Z,41.70
2023-02-03T05:20:51.759Z,41.50
2023-02-03T05:22:53.515Z,41.50
2023-02-03T05:25:00.312Z,41.70
2023-02-03T05:27:02.074Z,41.80
2023-02-03T05:29:06.663Z,42.40
2023-02-03T05:31:08.737Z,41.80
2023-02-03T05:33:10.445Z,41.90
2023-02-03T05:35:14.925Z,42.00
2023-02-03T05:37:16.777Z,42.10
2023-02-03T05:39:20.833Z,42.10
2023-02-03T05:41:40.949Z,42.20
2023-02-03T05:43:44.856Z,42.20
2023-02-03T05:45:48.727Z,42.00
2023-02-03T05:47:50.448Z,42.20
2023-02-03T05:49:52.166Z,42.00
2023-02-03T05:51:58.301Z,42.00
2023-02-03T05:54:02.497Z,41.90
2023-02-03T05:56:04.396Z,42.00
2023-02-03T05:58:06.059Z,42.00
2023-02-03T06:00:08.450Z,41.90
2023-02-03T06:02:19.002Z,41.80
2023-02-03T06:04:20.741Z,41.80
2023-02-03T06:06:22.800Z,41.80
2023-02-03T06:08:28.447Z,41.60
2023-02-03T06:10:32.668Z,41.40
2023-02-03T06:12:36.895Z,41.40
2023-02-03T06:14:38.835Z,41.40
2023-02-03T06:16:40.506Z,41.30
2023-02-03T06:18:42.488Z,41.20
2023-02-03T06:20:44.342Z,40.90
2023-02-03T06:22:46.200Z,40.70
2023-02-03T06:24:48.416Z,40.60
2023-02-03T06:26:50.110Z,40.50
2023-02-03T06:28:51.810Z,40.30
2023-02-03T06:30:53.796Z,40.20
2023-02-03T06:32:55.753Z,40.80
2023-02-03T06:34:59.877Z,40.00
2023-02-03T06:37:04.086Z,40.10
2023-02-03T06:39:05.860Z,39.90
2023-02-03T06:41:07.812Z,40.00
2023-02-03T06:43:09.443Z,40.00
2023-02-03T06:45:11.117Z,40.00
2023-02-03T06:47:12.895Z,40.10
2023-02-03T06:49:14.625Z,40.40
2023-02-03T06:51:16.289Z,40.10
2023-02-03T06:53:17.987Z,40.20
2023-02-03T06:55:19.776Z,40.40
2023-02-03T06:57:23.852Z,40.20
2023-02-03T06:59:26.721Z,40.30
2023-02-03T07:01:29.710Z,40.20
2023-02-03T07:03:31.492Z,40.30
2023-02-03T07:05:33.566Z,40.20
2023-02-03T07:07:36.388Z,40.20
2023-02-03T07:09:42.396Z,40.00
2023-02-03T07:11:44.104Z,40.00
2023-02-03T07:13:48.488Z,39.90
2023-02-03T07:15:50.791Z,40.00
2023-02-03T07:17:54.177Z,40.00
2023-02-03T07:19:55.875Z,40.00
2023-02-03T07:21:57.663Z,40.00
2023-02-03T07:23:59.599Z,39.80
2023-02-03T07:26:04.517Z,39.80
2023-02-03T07:28:07.242Z,39.70
2023-02-03T07:30:09.714Z,39.60
2023-02-03T07:32:14.719Z,39.60
2023-02-03T07:34:16.505Z,39.60
2023-02-03T07:36:19.821Z,39.40
2023-02-03T07:38:22.849Z,39.40
2023-02-03T07:40:24.676Z,39.20
2023-02-03T07:42:26.440Z,39.00
2023-02-03T07:44:28.220Z,38.70
2023-02-03T07:46:30.094Z,38.30
2023-02-03T07:48:31.946Z,38.30
2023-02-03T07:50:33.757Z,38.30
2023-02-03T07:52:38.288Z,38.30
2023-02-03T07:54:40.035Z,38.30
2023-02-03T07:56:42.956Z,38.30
2023-02-03T07:58:44.621Z,38.40
2023-02-03T08:00:46.288Z,38.40
2023-02-03T08:02:47.977Z,38.40
2023-02-03T08:04:49.926Z,38.40
2023-02-03T08:06:51.637Z,38.40
2023-02-03T08:08:56.617Z,38.40
2023-02-03T08:10:58.414Z,38.40
2023-02-03T08:13:00.196Z,38.40
2023-02-03T08:15:01.951Z,38.40
2023-02-03T08:17:03.720Z,38.30
2023-02-03T08:19:05.810Z,38.50
2023-02-03T08:21:07.627Z,38.40
2023-02-03T08:23:09.349Z,38.70
2023-02-03T08:25:11.618Z,38.70
2023-02-03T08:27:15.082Z,38.80
2023-02-03T08:29:19.685Z,38.70
2023-02-03T08:31:23.693Z,39.00
2023-02-03T08:33:25.737Z,38.90
2023-02-03T08:35:27.388Z,38.90
2023-02-03T08:37:31.731Z,39.00
2023-02-03T08:39:37.034Z,38.90
2023-02-03T08:41:39.059Z,38.90
2023-02-03T08:43:41.481Z,39.00
2023-02-03T08:45:43.396Z,38.90
2023-02-03T08:47:45.162Z,38.70
2023-02-03T08:49:46.996Z,38.80
2023-02-03T08:51:49.061Z,38.80
2023-02-03T08:53:50.730Z,38.60
2023-02-03T08:55:52.913Z,38.40
2023-02-03T08:57:56.745Z,38.40
2023-02-03T08:59:58.374Z,37.70
2023-02-03T09:02:01.026Z,37.40
2023-02-03T09:04:03.944Z,37.20
2023-02-03T09:06:09.212Z,36.70
2023-02-03T09:08:13.275Z,36.60
2023-02-03T09:10:14.995Z,36.40
2023-02-03T09:12:17.296Z,36.50
2023-02-03T09:14:21.459Z,36.60
2023-02-03T09:16:24.100Z,36.60
2023-02-03T09:18:25.826Z,36.90
2023-02-03T09:20:30.427Z,36.90
2023-02-03T09:22:32.360Z,37.10
2023-02-03T09:24:34.310Z,37.40
2023-02-03T09:26:36.337Z,37.50
2023-02-03T09:28:42.124Z,37.50
2023-02-03T09:30:43.839Z,37.50
2023-02-03T09:32:48.826Z,37.50
2023-02-03T09:34:50.545Z,37.50
2023-02-03T09:36:52.263Z,37.50
2023-02-03T09:38:53.991Z,37.60
2023-02-03T09:41:18.501Z,37.90
2023-02-03T09:43:43.172Z,37.60
2023-02-03T09:45:47.147Z,37.60
2023-02-03T09:47:54.008Z,37.60
2023-02-03T09:50:02.683Z,37.70
2023-02-03T09:52:12.024Z,37.60
2023-02-03T09:54:20.252Z,37.60
2023-02-03T09:56:32.699Z,37.60
2023-02-03T09:58:34.703Z,37.60
2023-02-03T10:00:54.201Z,37.60
2023-02-03T10:03:16.366Z,37.20
2023-02-03T10:05:39.859Z,37.20
2023-02-03T10:07:58.749Z,37.00
2023-02-03T10:10:06.917Z,36.90
2023-02-03T10:12:40.850Z,36.90
2023-02-03T10:14:54.602Z,37.10
2023-02-03T10:17:31.690Z,37.10
2023-02-03T10:19:45.118Z,37.00
2023-02-03T10:21:57.846Z,37.10
2023-02-03T10:24:01.407Z,36.90
2023-02-03T10:26:07.735Z,36.80
2023-02-03T10:28:18.986Z,36.70
2023-02-03T10:30:26.987Z,36.30
2023-02-03T10:32:29.047Z,36.10
2023-02-03T10:34:30.700Z,35.90
2023-02-03T10:36:40.873Z,35.80
2023-02-03T10:38:59.922Z,35.80
2023-02-03T10:41:02.858Z,35.50
2023-02-03T10:43:23.267Z,35.40
2023-02-03T10:45:25.044Z,35.20
2023-02-03T10:47:41.450Z,35.10
2023-02-03T10:49:45.947Z,35.00
2023-02-03T10:51:51.054Z,34.80
2023-02-03T10:53:53.638Z,35.10
2023-02-03T10:56:09.236Z,35.40
2023-02-03T10:58:17.768Z,35.70
2023-02-03T11:00:22.654Z,35.60
2023-02-03T11:02:30.250Z,35.50
2023-02-03T11:04:35.936Z,35.50
2023-02-03T11:06:57.707Z,35.60
2023-02-03T11:08:59.922Z,35.60
2023-02-03T11:11:04.431Z,35.70
2023-02-03T11:13:24.552Z,35.40
2023-02-03T11:15:26.636Z,35.40
2023-02-03T11:17:30.680Z,35.00
2023-02-03T11:19:32.380Z,34.90
2023-02-03T11:21:39.417Z,34.60
2023-02-03T11:24:01.603Z,34.70
2023-02-03T11:26:14.811Z,34.30
2023-02-03T11:28:17.692Z,34.20
2023-02-03T11:30:26.977Z,34.30
2023-02-03T11:32:37.312Z,34.00
2023-02-03T11:34:42.783Z,34.10
2023-02-03T11:36:46.819Z,34.00
2023-02-03T11:38:48.799Z,34.00
2023-02-03T11:41:01.071Z,34.10
2023-02-03T11:43:16.990Z,34.10
2023-02-03T11:45:27.936Z,34.20
2023-02-03T11:47:29.784Z,34.10
2023-02-03T11:49:56.302Z,34.00
2023-02-03T11:52:01.088Z,34.00
2023-02-03T11:54:28.677Z,34.10
2023-02-03T11:57:05.076Z,34.00
2023-02-03T11:59:17.326Z,34.20
2023-02-03T12:01:37.843Z,34.10
2023-02-03T12:04:03.721Z,34.20
2023-02-03T12:06:18.263Z,34.20
2023-02-03T12:08:29.141Z,34.20
2023-02-03T12:10:47.407Z,34.30
2023-02-03T12:13:01.367Z,34.40
2023-02-03T12:15:33.727Z,34.40
2023-02-03T12:17:59.979Z,34.70
2023-02-03T12:20:40.604Z,34.90
2023-02-03T12:23:12.238Z,35.10
2023-02-03T12:25:40.517Z,35.30
2023-02-03T12:28:07.018Z,35.60
2023-02-03T12:30:19.170Z,35.60
2023-02-03T12:32:48.429Z,35.80
2023-02-03T12:34:53.599Z,36.10
2023-02-03T12:37:10.298Z,36.20
2023-02-03T12:39:26.660Z,36.50
2023-02-03T12:41:46.342Z,36.70
2023-02-03T12:43:54.162Z,37.20
2023-02-03T12:46:23.639Z,37.70
2023-02-03T12:48:32.582Z,38.20
2023-02-03T12:50:46.989Z,38.10
2023-02-03T12:52:59.662Z,38.10
2023-02-03T12:55:32.846Z,38.10
2023-02-03T12:57:46.203Z,38.60
2023-02-03T13:00:07.299Z,38.80
2023-02-03T13:02:21.884Z,39.30
2023-02-03T13:04:57.179Z,40.20
2023-02-03T13:07:18.183Z,39.80
2023-02-03T13:09:30.625Z,39.90
2023-02-03T13:11:46.343Z,39.90
2023-02-03T13:14:04.163Z,40.00
2023-02-03T13:16:10.756Z,39.70
2023-02-03T13:18:32.769Z,39.90
2023-02-03T13:20:37.034Z,39.90
2023-02-03T13:22:38.746Z,39.80
2023-02-03T13:24:49.085Z,40.10
2023-02-03T13:27:15.584Z,40.00
2023-02-03T13:29:40.575Z,40.10
2023-02-03T13:32:01.612Z,40.00
2023-02-03T13:34:28.278Z,39.80
2023-02-03T13:36:49.131Z,39.80
2023-02-03T13:39:09.963Z,39.80
2023-02-03T13:41:25.228Z,39.80
2023-02-03T13:43:38.726Z,39.80
2023-02-03T13:45:46.419Z,39.80
2023-02-03T13:47:51.132Z,39.90
2023-02-03T13:49:56.746Z,39.90
2023-02-03T13:51:59.076Z,40.00
2023-02-03T13:54:23.776Z,40.10
2023-02-03T13:56:28.579Z,40.60
2023-02-03T13:58:34.103Z,40.60
2023-02-03T14:00:46.065Z,40.60
2023-02-03T14:02:56.966Z,40.90
2023-02-03T14:05:02.388Z,40.90
2023-02-03T14:07:24.885Z,41.00
2023-02-03T14:09:35.323Z,41.00
2023-02-03T14:11:37.755Z,41.00
2023-02-03T14:13:39.544Z,41.10
2023-02-03T14:15:42.183Z,41.20
2023-02-03T14:17:46.249Z,41.40
2023-02-03T14:19:50.887Z,41.50
2023-02-03T14:21:54.310Z,41.60
2023-02-03T14:24:05.119Z,41.50
2023-02-03T14:26:19.164Z,41.50
2023-02-03T14:28:25.835Z,41.50
2023-02-03T14:30:30.089Z,41.90
2023-02-03T14:32:53.475Z,41.90
2023-02-03T14:34:55.174Z,42.00
2023-02-03T14:37:08.551Z,42.10
2023-02-03T14:39:22.623Z,42.40
2023-02-03T14:41:44.220Z,42.40
2023-02-03T14:44:08.626Z,43.10
2023-02-03T14:46:49.189Z,42.60
2023-02-03T14:49:10.313Z,42.40
2023-02-03T14:51:12.028Z,42.40
2023-02-03T14:53:26.265Z,42.40
2023-02-03T14:56:05.847Z,42.30
2023-02-03T14:58:21.944Z,42.60
2023-02-03T15:00:34.142Z,42.60
2023-02-03T15:02:36.523Z,42.30
2023-02-03T15:04:38.276Z,42.30
2023-02-03T15:06:51.440Z,42.50
2023-02-03T15:08:59.792Z,42.70
2023-02-03T15:11:20.654Z,42.50
2023-02-03T15:13:27.327Z,42.90
2023-02-03T15:15:32.039Z,42.90
2023-02-03T15:17:37.511Z,42.70
2023-02-03T15:19:41.769Z,42.60
2023-02-03T15:21:43.898Z,42.80
2023-02-03T15:23:48.130Z,42.80
2023-02-03T15:25:54.195Z,42.90
2023-02-03T15:28:13.224Z,43.00
2023-02-03T15:30:23.745Z,43.10
2023-02-03T15:32:32.741Z,42.70
2023-02-03T15:34:42.333Z,42.90
2023-02-03T15:36:48.451Z,42.90
2023-02-03T15:39:06.400Z,42.90
2023-02-03T15:41:17.002Z,43.10
2023-02-03T15:43:23.054Z,43.40
2023-02-03T15:45:37.746Z,43.30
2023-02-03T15:47:46.817Z,43.40
2023-02-03T15:49:55.691Z,43.40
2023-02-03T15:52:24.819Z,43.60
2023-02-03T15:54:41.298Z,43.70
2023-02-03T15:56:48.603Z,44.40
2023-02-03T15:58:53.705Z,43.80
2023-02-03T16:00:59.353Z,43.70
2023-02-03T16:03:05.184Z,43.90
2023-02-03T16:05:26.187Z,43.80
2023-02-03T16:07:32.134Z,44.00
2023-02-03T16:09:41.167Z,43.90
2023-02-03T16:11:43.081Z,43.80
2023-02-03T16:13:47.128Z,43.70
2023-02-03T16:16:20.866Z,43.90
2023-02-03T16:18:25.485Z,44.00
2023-02-03T16:20:28.512Z,43.70
2023-02-03T16:22:35.531Z,43.90
2023-02-03T16:24:41.016Z,43.70
2023-02-03T16:26:42.742Z,43.90
2023-02-03T16:29:23.332Z,43.70
2023-02-03T16:31:44.187Z,43.90
2023-02-03T16:34:11.724Z,43.90
2023-02-03T16:36:35.022Z,43.70
2023-02-03T16:38:55.274Z,43.90
2023-02-03T16:41:16.240Z,43.90
2023-02-03T16:43:36.444Z,44.10
2023-02-03T16:45:56.664Z,44.10
2023-02-03T16:48:19.362Z,44.00
2023-02-03T16:50:42.890Z,44.30
2023-02-03T16:52:44.610Z,44.20
2023-02-03T16:54:46.296Z,44.40
2023-02-03T16:56:48.019Z,44.40
2023-02-03T16:58:49.858Z,44.50
2023-02-03T17:00:52.882Z,44.40
2023-02-03T17:02:54.622Z,44.50
2023-02-03T17:04:58.895Z,44.50
2023-02-03T17:07:02.840Z,44.40
2023-02-03T17:09:04.797Z,44.60
2023-02-03T17:11:14.404Z,44.40
2023-02-03T17:13:17.723Z,44.40
2023-02-03T17:15:19.420Z,44.30
2023-02-03T17:17:21.072Z,44.40
2023-02-03T17:19:22.778Z,44.50
2023-02-03T17:21:27.416Z,44.80
2023-02-03T17:23:29.113Z,44.70
2023-02-03T17:25:36.641Z,44.70
2023-02-03T17:27:38.396Z,44.90
2023-02-03T17:29:40.308Z,44.70
2023-02-03T17:31:42.014Z,44.80
2023-02-03T17:33:44.562Z,44.70
2023-02-03T17:35:46.367Z,44.70
2023-02-03T17:37:48.075Z,45.40
2023-02-03T17:53:48.506Z,44.60
2023-02-03T17:55:50.349Z,44.50
2023-02-03T17:57:52.282Z,44.40
2023-02-03T17:59:55.218Z,44.50
2023-02-03T18:01:56.926Z,44.40
2023-02-03T18:04:03.629Z,44.40
2023-02-03T18:06:08.399Z,44.20
2023-02-03T18:08:16.540Z,44.00
2023-02-03T18:10:18.729Z,44.10
2023-02-03T18:12:20.382Z,43.90
2023-02-03T18:14:22.047Z,43.80
2023-02-03T18:16:34.716Z,43.70
2023-02-03T18:18:38.645Z,43.40
2023-02-03T18:20:40.428Z,43.30
2023-02-03T18:22:44.081Z,43.20
2023-02-03T18:24:51.627Z,43.20
2023-02-03T18:26:53.538Z,43.30
2023-02-03T18:28:57.037Z,43.20
2023-02-03T18:31:07.623Z,43.40
2023-02-03T18:33:09.403Z,43.10
2023-02-03T18:35:16.865Z,43.10
2023-02-03T18:37:18.564Z,43.10
2023-02-03T18:39:20.869Z,42.90
2023-02-03T18:41:27.262Z,43.00
2023-02-03T18:43:29.334Z,42.80
2023-02-03T18:45:34.296Z,42.80
2023-02-03T18:47:37.399Z,42.90
2023-02-03T18:49:47.792Z,42.70
2023-02-03T18:51:49.497Z,42.70
2023-02-03T18:53:51.921Z,42.70
2023-02-03T18:55:53.652Z,42.50
2023-02-03T18:58:00.196Z,42.40
2023-02-03T19:00:02.469Z,42.20
2023-02-03T19:02:04.149Z,42.20
2023-02-03T19:04:09.960Z,42.30
2023-02-03T19:06:11.908Z,42.20
2023-02-03T19:08:13.711Z,42.10
2023-02-03T19:10:16.177Z,42.00
2023-02-03T19:12:25.716Z,41.90
2023-02-03T19:14:28.357Z,41.70
2023-02-03T19:16:30.303Z,41.50
2023-02-03T19:18:32.929Z,41.40
2023-02-03T19:20:41.272Z,41.30
2023-02-03T19:22:43.123Z,41.00
2023-02-03T19:24:44.800Z,40.90
2023-02-03T19:26:46.599Z,40.90
2023-02-03T19:28:50.843Z,41.30
2023-02-03T19:30:57.522Z,40.90
2023-02-03T19:33:01.890Z,40.80
2023-02-03T19:35:05.817Z,40.70
2023-02-03T19:37:10.505Z,40.70
2023-02-03T19:39:12.848Z,40.70
2023-02-03T19:41:14.682Z,40.90
2023-02-03T19:43:16.466Z,41.00
2023-02-03T19:45:18.195Z,40.90
2023-02-03T19:47:22.322Z,40.90
2023-02-03T19:49:25.279Z,40.90
2023-02-03T19:51:26.956Z,40.70
2023-02-03T19:53:28.628Z,40.70
2023-02-03T19:55:32.595Z,40.50
2023-02-03T19:57:34.389Z,40.50
2023-02-03T19:59:36.045Z,40.20
2023-02-03T20:01:40.775Z,40.10
2023-02-03T20:03:43.722Z,40.00
2023-02-03T20:05:46.574Z,40.00
2023-02-03T20:07:52.475Z,40.00
2023-02-03T20:09:54.111Z,39.80
2023-02-03T20:11:56.185Z,39.80
2023-02-03T20:13:57.912Z,39.90
2023-02-03T20:15:59.874Z,39.90
2023-02-03T20:18:01.607Z,39.70
2023-02-03T20:20:05.454Z,39.80
2023-02-03T20:22:07.146Z,39.80
2023-02-03T20:24:08.776Z,39.70
2023-02-03T20:26:10.455Z,39.60
2023-02-03T20:28:12.252Z,39.50
2023-02-03T20:30:14.280Z,39.30
2023-02-03T20:32:16.021Z,39.40
2023-02-03T20:34:17.801Z,39.50
2023-02-03T20:36:20.127Z,39.50
2023-02-03T20:38:21.913Z,39.50
2023-02-03T20:40:26.429Z,39.40
2023-02-03T20:42:29.528Z,39.50
2023-02-03T20:44:32.044Z,39.40
2023-02-03T20:46:34.078Z,40.20
2023-02-03T20:48:35.864Z,39.50
2023-02-03T20:50:42.479Z,39.60
2023-02-03T20:52:45.681Z,39.50
2023-02-03T20:54:49.606Z,39.50
2023-02-03T20:56:51.350Z,39.50
2023-02-03T20:58:55.230Z,39.60
2023-02-03T21:00:59.688Z,39.90
2023-02-03T21:03:20.112Z,39.80
2023-02-03T21:05:28.191Z,39.70
2023-02-03T21:07:30.705Z,39.90
2023-02-03T21:09:32.540Z,39.80
2023-02-03T21:11:34.381Z,39.90
2023-02-03T21:13:39.231Z,40.00
2023-02-03T21:15:40.904Z,39.90
2023-02-03T21:17:43.095Z,40.20
2023-02-03T21:19:47.507Z,40.10
2023-02-03T21:21:52.101Z,40.30
2023-02-03T21:23:54.307Z,40.40
2023-02-03T21:25:55.985Z,40.40
2023-02-03T21:27:58.457Z,40.30
2023-02-03T21:30:03.753Z,40.30
2023-02-03T21:32:13.665Z,40.30
2023-02-03T21:34:35.607Z,40.40
2023-02-03T21:36:38.581Z,40.40
2023-02-03T21:38:42.937Z,40.30
2023-02-03T21:40:44.563Z,40.20
2023-02-03T21:42:46.722Z,40.30
2023-02-03T21:44:48.388Z,40.30
2023-02-03T21:46:50.056Z,40.30
2023-02-03T21:49:01.581Z,40.30
2023-02-03T21:51:15.580Z,40.20
2023-02-03T21:53:35.962Z,40.20
2023-02-03T21:55:39.869Z,40.20
2023-02-03T21:57:41.562Z,40.10
2023-02-03T21:59:49.560Z,40.00
2023-02-03T22:01:53.039Z,40.00
2023-02-03T22:03:55.971Z,40.10
2023-02-03T22:06:09.319Z,40.00
2023-02-03T22:08:19.515Z,40.00
2023-02-03T22:10:21.191Z,40.00
2023-02-03T22:12:22.901Z,40.10
2023-02-03T22:14:24.602Z,40.10
2023-02-03T22:16:26.403Z,40.10
2023-02-03T22:18:28.237Z,40.10
2023-02-03T22:20:32.080Z,40.20
2023-02-03T22:22:34.141Z,40.20
2023-02-03T22:24:35.976Z,40.20
2023-02-03T22:26:37.674Z,40.20
2023-02-03T22:28:39.978Z,40.20
2023-02-03T22:30:41.830Z,40.40
2023-02-03T22:32:46.283Z,40.40
2023-02-03T22:34:48.005Z,40.50
2023-02-03T22:36:49.638Z,40.50
2023-02-03T22:38:51.414Z,40.40
2023-02-03T22:40:53.693Z,40.60
2023-02-03T22:42:58.008Z,40.50
2023-02-03T22:44:59.679Z,40.40
2023-02-03T22:47:01.418Z,40.40
2023-02-03T22:49:03.113Z,40.20
2023-02-03T22:51:05.004Z,40.30
2023-02-03T22:53:10.415Z,40.20
2023-02-03T22:55:12.193Z,40.20
2023-02-03T22:57:13.894Z,40.30
2023-02-03T22:59:15.621Z,40.20
2023-02-03T23:01:21.617Z,40.50
2023-02-03T23:03:23.504Z,40.30
2023-02-03T23:05:28.381Z,40.40
2023-02-03T23:07:30.043Z,40.40
2023-02-03T23:09:31.803Z,40.40
2023-02-03T23:11:35.966Z,40.50
2023-02-03T23:13:37.631Z,40.50
2023-02-03T23:15:41.950Z,40.50
2023-02-03T23:17:44.418Z,40.50
2023-02-03T23:19:46.263Z,40.50
2023-02-03T23:21:48.006Z,40.60
2023-02-03T23:23:49.774Z,40.70
2023-02-03T23:25:51.459Z,40.70
2023-02-03T23:27:53.215Z,40.70
2023-02-03T23:29:54.969Z,40.70
2023-02-03T23:31:56.779Z,40.90
2023-02-03T23:34:17.005Z,40.90
2023-02-03T23:36:23.528Z,41.00
2023-02-03T23:38:25.302Z,41.00
2023-02-03T23:40:27.288Z,40.90
2023-02-03T23:42:31.234Z,41.00
2023-02-03T23:44:32.963Z,41.10
2023-02-03T23:46:37.674Z,41.20
2023-02-03T23:48:42.527Z,41.20
2023-02-03T23:50:44.268Z,41.40
2023-02-03T23:52:49.138Z,41.40
2023-02-03T23:54:53.027Z,41.50
2023-02-03T23:56:56.857Z,41.70
2023-02-03T23:59:02.704Z,41.80
